Date,TemperatureHighF,TemperatureAvgF,TemperatureLowF,DewpointHighF,DewpointAvgF,DewpointLowF,HumidityHigh,HumidityAvg,HumidityLow,PressureMaxIn,PressureMinIn,WindSpeedMaxMPH,WindSpeedAvgMPH,GustSpeedMaxMPH,PrecipitationSumIn
2013-1-1,37.6,31.8,23.5,1.6,-4.2,-9.7,22,21,19,29.53,29.35,15,3,15,0.00
2013-1-2,31.3,25.2,20.1,-5.1,-9.0,-12.6,24,21,20,29.68,29.53,19,1,19,0.04
2013-1-3,33.6,26.4,17.6,-3.2,-7.1,-10.7,34,22,20,29.71,29.59,9,1,9,0.00
2013-1-4,38.3,33.1,28.6,-0.2,-3.6,-7.4,23,20,19,29.59,29.47,12,2,12,0.00
2013-1-5,34.0,32.0,29.8,-2.9,-4.5,-6.3,20,20,20,29.71,29.53,10,1,10,0.00
2013-1-7,44.1,34.7,24.6,9.5,0.8,-5.4,38,24,18,29.91,29.68,11,1,11,0.00
2013-1-8,36.7,26.9,20.8,5.0,1.6,-0.6,43,34,22,29.91,29.85,4,0,4,0.00
2013-1-9,45.7,34.8,24.6,13.4,6.0,1.2,45,31,20,29.91,29.65,13,1,13,0.00
2013-1-10,46.4,40.1,32.0,5.1,1.5,-2.6,30,20,17,30.06,29.74,20,2,20,0.00
2013-1-11,39.9,34.8,28.9,21.7,8.8,-0.2,53,35,21,30.06,29.65,4,0,4,0.28
2013-1-12,47.5,41.8,37.2,37.7,28.0,21.5,72,58,46,29.68,29.62,4,0,4,0.00
2013-1-13,46.2,43.6,40.6,39.4,35.5,28.4,80,73,60,29.68,29.53,4,0,4,0.08
2013-1-14,54.3,46.8,37.6,48.2,24.9,2.1,86,50,17,29.83,29.44,13,2,13,0.04
2013-1-15,37.6,35.1,33.6,16.7,4.7,-0.6,47,28,22,29.88,29.74,9,2,9,0.12
2013-1-16,34.3,31.9,30.2,20.7,17.3,7.3,60,54,33,29.74,29.35,6,1,6,0.00
2013-1-17,36.0,34.7,33.6,-1.6,-2.5,-3.2,20,20,19,29.59,29.53,6,2,6,0.00
2013-1-18,33.6,25.8,21.6,-3.2,-8.5,-11.4,22,21,20,29.97,29.53,13,2,13,0.00
2013-1-19,47.5,37.5,22.5,4.8,-1.3,-10.6,22,19,17,29.88,29.41,11,2,11,0.00
2013-1-20,52.0,39.1,27.1,13.2,2.1,-7.6,41,21,16,29.56,29.21,18,2,18,0.00
2013-1-21,27.1,25.7,22.6,-7.6,-8.6,-10.5,24,21,21,29.59,29.35,13,1,13,0.00
2013-1-22,23.9,17.6,10.2,-9.4,-14.0,-19.4,24,23,22,29.71,29.35,15,2,15,0.00
2013-1-23,18.5,11.5,6.8,-13.1,-18.4,-22.3,24,24,23,29.74,29.65,11,1,11,0.00
2013-1-24,21.6,13.6,5.5,-11.4,-17.0,-23.4,24,23,22,29.91,29.62,17,3,17,0.00
2013-1-25,18.1,12.5,10.0,-6.1,-15.3,-19.5,34,27,24,29.91,29.56,6,0,10,0.00
2013-1-26,26.2,17.9,10.9,-8.4,-11.3,-15.5,34,26,21,29.88,29.56,17,2,17,0.00
2013-1-27,33.4,23.3,14.7,-3.3,-10.2,-15.7,24,22,20,30.03,29.88,14,1,14,0.00
2013-1-28,32.9,27.3,20.1,16.3,1.9,-12.6,50,34,21,29.97,29.53,8,0,8,0.12
2013-1-29,39.4,38.6,37.6,23.9,22.4,21.3,57,52,48,29.62,29.59,3,0,3,0.12
2013-1-30,55.6,42.9,36.1,48.6,35.0,24.2,86,73,58,29.59,28.88,6,0,6,0.39
2013-1-31,60.8,43.4,27.1,56.5,12.1,-7.6,89,32,17,29.29,28.56,22,3,22,1.02
2013-2-1,27.1,25.2,21.7,-7.6,-8.8,-10.6,25,22,21,29.65,29.29,13,2,13,0.00
2013-2-2,28.2,23.6,17.6,-0.9,-6.9,-13.9,36,26,21,29.80,29.56,16,2,16,0.00
2013-2-3,30.2,22.8,18.5,3.2,-3.5,-9.7,45,32,20,29.56,29.29,9,0,9,0.00
2013-2-4,30.0,24.8,19.9,3.7,-8.6,-12.5,42,22,20,29.47,29.29,14,2,14,0.00
2013-2-5,28.6,26.3,23.5,7.8,-0.7,-9.4,42,31,21,29.47,29.41,6,0,6,0.00
2013-2-6,33.6,29.4,24.8,-3.2,-6.3,-9.3,22,20,20,29.85,29.71,8,3,8,0.00
2013-2-7,30.7,24.8,18.1,-5.6,-9.3,-13.4,23,21,20,30.00,29.85,8,0,8,0.00
2013-2-8,32.5,30.1,26.6,19.9,8.9,-7.4,64,42,20,29.85,29.21,24,3,24,0.00
2013-2-9,32.5,26.2,18.3,16.0,-2.5,-13.3,60,30,20,29.85,29.26,24,5,24,0.00
2013-2-10,37.6,24.7,12.2,-0.9,-9.0,-17.7,29,22,19,29.97,29.83,10,1,10,0.04
2013-2-11,41.0,31.1,26.1,31.6,8.8,-5.8,70,41,24,29.83,29.21,4,0,4,0.04
2013-2-12,44.1,38.6,28.9,29.0,3.4,-2.1,72,24,18,29.47,29.23,17,2,17,0.00
2013-2-13,33.3,29.7,25.7,15.2,9.0,3.8,48,41,35,29.47,29.23,3,0,3,0.00
2013-2-14,45.9,35.0,25.5,18.1,7.8,-1.4,54,35,17,29.50,29.23,8,1,8,0.04
2013-2-15,54.5,39.7,26.6,13.6,7.5,0.0,45,28,16,29.50,29.41,14,1,14,0.04
2013-2-16,36.3,34.3,32.7,18.4,6.2,-3.5,51,32,19,29.50,29.35,14,2,14,0.04
2013-2-17,30.0,22.7,15.1,-6.2,-10.5,-15.3,24,22,20,29.50,29.21,24,6,24,0.00
2013-2-18,33.4,22.2,14.2,-3.3,-10.8,-16.0,24,22,20,29.74,29.50,15,3,17,0.00
2013-2-19,42.3,32.6,20.5,26.1,4.0,-11.1,55,31,18,29.71,29.21,11,1,11,0.35
2013-2-20,35.4,31.5,27.9,-1.6,-4.8,-7.4,21,20,20,29.29,29.21,10,2,10,0.00
2013-2-21,24.4,22.5,21.7,-8.9,-10.6,-11.2,22,22,22,29.80,29.68,18,3,18,0.00
2013-2-22,37.4,30.4,21.9,2.0,-4.4,-11.1,27,22,19,29.91,29.77,12,1,12,0.00
2013-2-23,39.0,35.2,31.6,32.8,23.9,-0.2,78,65,23,29.77,29.35,6,1,6,0.24
2013-2-24,48.2,37.4,31.8,30.4,12.0,-4.7,76,42,17,29.47,29.26,17,2,17,0.00
2013-2-25,35.4,31.3,30.0,4.2,-2.0,-5.7,30,23,20,29.62,29.47,8,1,8,0.00
2013-2-26,39.0,36.1,34.0,17.6,8.5,2.0,50,33,21,29.65,29.44,6,3,10,0.08
2013-2-27,45.1,40.5,34.3,38.0,24.1,10.9,78,54,28,29.44,29.03,14,2,14,0.94
2013-2-28,42.4,37.4,36.0,24.9,19.0,14.7,53,47,36,29.15,29.12,5,0,5,0.00
2013-3-1,37.9,36.2,34.2,1.5,-1.4,-2.7,21,20,19,29.29,29.26,13,3,13,0.00
2013-3-2,38.1,34.5,31.3,-0.5,-2.8,-5.1,23,20,19,29.29,29.23,15,3,15,0.00
2013-3-3,37.4,31.5,25.9,-1.2,-4.8,-8.7,21,20,19,29.29,29.18,15,4,15,0.00
2013-3-4,39.6,31.7,25.2,0.3,-4.7,-9.3,21,20,18,29.41,29.26,19,4,19,0.00
2013-3-5,46.0,36.8,29.7,3.7,-1.4,-6.5,22,19,17,29.53,29.41,12,3,12,0.00
2013-3-6,39.9,37.9,34.9,16.8,4.2,-1.5,40,24,19,29.50,29.38,15,5,20,0.00
2013-3-7,37.9,35.3,32.4,14.8,5.4,-2.6,45,30,19,29.59,29.47,20,6,20,0.08
2013-3-8,41.9,36.6,31.3,14.1,7.3,0.4,48,31,21,29.74,29.56,11,3,11,0.24
2013-3-9,55.6,40.7,29.7,12.5,2.3,-4.8,23,20,16,29.83,29.71,17,3,17,0.00
2013-3-10,52.5,39.0,26.8,10.7,4.5,-2.8,35,24,17,29.88,29.80,9,1,9,0.00
2013-3-11,54.5,46.8,37.4,30.7,20.6,9.7,61,37,18,29.77,29.59,10,1,10,0.00
2013-3-12,55.6,49.6,41.0,47.1,31.1,10.9,73,51,27,29.59,29.18,9,1,9,1.50
2013-3-13,50.7,41.2,33.6,16.5,6.7,-0.6,44,25,16,29.41,29.29,11,1,11,0.00
2013-3-14,35.8,33.9,32.2,0.7,-2.0,-4.5,22,21,20,29.41,29.38,17,3,17,0.00
2013-3-16,32.2,32.2,32.2,11.1,11.1,10.6,41,41,41,29.41,29.41,2,0,2,0.00
2013-3-17,36.0,31.1,25.3,11.1,-3.3,-9.1,41,22,19,29.83,29.41,16,3,16,0.00
2013-3-18,34.3,28.1,21.7,16.6,-1.5,-11.2,56,29,20,29.91,29.53,8,1,8,0.00
2013-3-19,37.2,33.4,30.4,23.1,15.6,-0.6,65,50,22,29.53,29.29,17,2,17,0.08
2013-3-20,44.4,35.9,29.1,3.6,-1.8,-6.9,23,20,18,29.38,29.29,16,2,16,0.00
2013-3-21,34.7,32.5,30.4,6.8,1.5,-3.2,36,27,20,29.35,29.32,5,0,5,0.00
2013-3-23,44.6,37.7,32.0,3.1,-0.9,-4.7,20,19,17,29.44,29.32,20,3,20,0.00
2013-3-24,45.7,37.8,29.7,3.6,-1.0,-6.6,20,19,17,29.44,29.21,14,2,14,0.00
2013-3-25,40.6,37.5,35.6,11.6,0.9,-2.6,33,21,18,29.21,28.97,13,2,13,0.00
2013-3-26,51.1,41.0,33.1,10.8,5.2,-2.4,36,23,16,29.35,29.09,19,2,19,0.00
2013-3-27,50.9,41.2,33.6,12.7,2.9,-3.2,34,20,16,29.50,29.35,17,2,17,0.00
2013-3-28,37.8,36.1,34.2,7.7,5.7,3.0,31,28,24,29.53,29.47,10,1,10,0.00
2013-3-30,59.2,49.7,34.3,14.4,8.3,-2.0,31,19,16,31.01,31.01,11,2,11,0.00
2013-3-31,55.9,42.6,29.5,28.8,9.9,-2.6,54,28,17,31.01,31.01,10,1,10,0.20
2013-4-1,62.2,46.6,34.7,38.2,15.7,-2.6,69,33,16,31.01,31.01,17,2,17,0.00
2013-4-2,43.3,35.9,29.5,2.4,-2.2,-6.6,20,19,18,31.01,31.01,17,2,17,0.00
2013-4-3,34.0,31.6,30.4,-2.9,-4.8,-5.9,20,20,20,31.01,31.01,9,1,9,0.00
2013-4-4,54.5,42.4,29.5,11.9,2.4,-6.6,20,19,16,31.01,17.72,15,2,15,0.00
2013-4-5,62.2,48.6,36.1,15.6,6.9,-2.1,22,18,16,17.72,17.72,15,2,15,0.00
2013-4-7,62.6,54.9,39.7,15.8,11.9,3.0,21,18,16,17.72,17.72,17,4,17,0.00
2013-4-8,75.6,61.8,43.0,24.6,17.1,11.0,41,19,13,17.72,17.72,9,2,9,0.00
2013-4-9,80.2,65.5,49.5,27.5,20.2,11.6,38,19,12,17.72,17.72,15,2,15,0.00
2013-4-10,76.5,64.4,51.4,43.2,21.9,13.7,58,22,13,17.72,17.72,10,2,10,0.35
2013-4-11,62.1,54.5,44.4,51.3,26.9,10.7,79,39,16,17.72,17.72,11,2,11,0.08
2013-4-12,45.7,43.9,39.6,31.8,12.8,6.6,60,29,20,17.72,17.72,11,3,11,0.16
2013-4-13,47.7,46.5,44.6,20.6,9.1,6.4,38,22,19,17.72,17.72,6,0,6,0.00
2013-4-14,55.4,49.8,42.6,12.5,8.4,2.8,21,18,16,17.72,17.72,15,2,15,0.00
2013-4-15,48.9,41.2,38.7,7.1,2.3,-0.4,21,19,16,17.72,17.72,3,0,3,0.00
2013-4-16,50.7,47.2,46.6,18.0,13.7,6.7,29,26,19,17.72,17.72,5,0,5,0.00
2013-4-17,69.3,60.7,50.5,19.7,14.8,9.7,19,16,15,29.83,17.72,6,0,6,0.00
2013-4-18,60.1,51.5,43.2,34.7,18.0,6.4,48,28,17,29.88,29.65,12,1,12,0.00
2013-4-19,76.3,64.4,53.6,52.3,36.4,23.1,75,41,15,29.65,29.18,16,2,16,0.47
2013-4-20,57.9,52.4,47.8,29.3,15.0,8.5,44,24,17,29.71,29.23,17,2,17,0.16
2013-4-22,54.9,49.3,41.9,12.2,7.8,2.5,21,18,16,30.18,30.03,12,2,12,0.16
2013-4-23,50.0,43.4,37.6,19.4,8.3,1.2,39,24,19,30.03,29.65,10,3,10,0.16
2013-4-24,72.0,49.9,36.5,27.1,19.0,14.6,51,32,14,29.65,29.32,9,1,9,0.00
2013-4-25,59.7,52.0,43.7,25.4,10.9,2.5,27,19,17,29.68,29.38,19,4,19,0.00
2013-4-26,63.3,62.2,60.3,16.4,15.6,14.4,17,16,16,29.88,29.85,10,1,10,0.00
2013-4-27,69.1,60.2,37.9,19.5,14.5,1.5,24,17,15,29.97,29.80,11,1,11,0.00
2013-4-28,49.1,43.7,39.9,11.5,7.9,4.8,30,23,19,29.83,29.80,0,0,0,0.00
2013-4-29,54.0,52.4,50.4,31.7,27.4,21.5,44,38,29,29.77,29.74,8,0,8,0.12
2013-4-30,68.5,57.0,44.8,32.1,19.1,2.6,48,25,15,29.88,29.74,9,1,9,0.00
2013-5-1,69.6,54.9,37.4,20.0,12.7,2.5,30,19,15,30.00,29.85,10,0,10,0.00
2013-5-2,56.3,45.0,40.1,25.6,18.4,11.3,49,36,17,30.00,29.85,0,0,0,0.00
2013-5-3,60.6,53.9,50.2,17.9,12.5,9.5,26,19,17,30.00,29.88,8,0,8,0.00
2013-5-4,59.4,46.2,41.2,27.6,17.3,9.4,51,33,17,29.91,29.77,6,0,6,0.00
2013-5-5,66.4,51.0,38.5,27.2,16.0,9.2,52,27,15,29.83,29.74,10,1,10,0.00
2013-5-6,43.5,40.9,39.4,19.8,18.3,15.9,44,40,33,29.77,29.77,0,0,0,0.00
2013-5-7,75.4,66.2,46.4,38.2,23.7,14.9,57,22,13,29.71,29.62,10,1,10,0.00
2013-5-8,66.7,60.2,53.2,53.7,40.4,29.2,76,49,27,29.65,29.50,8,0,8,0.94
2013-5-9,67.8,58.4,50.9,53.2,35.4,18.1,79,48,15,29.56,29.44,8,0,8,0.31
2013-5-10,81.0,65.9,51.3,51.3,29.9,18.5,71,32,12,29.53,29.44,9,1,9,0.31
2013-5-11,72.3,64.7,61.3,51.0,41.2,30.8,66,44,22,29.44,29.23,11,1,11,0.91
2013-5-12,68.0,60.1,48.6,43.2,17.0,4.3,53,19,15,29.47,29.21,14,2,14,0.91
2013-5-13,54.5,47.1,38.1,11.9,6.8,0.5,29,19,16,29.65,29.47,16,2,16,0.00
2013-5-14,59.9,50.7,39.0,14.9,10.2,2.5,28,20,16,29.68,29.56,12,2,12,0.00
2013-5-15,71.8,56.2,38.3,26.7,16.4,5.6,35,22,14,29.62,29.21,10,1,10,0.00
2013-5-16,82.9,67.9,53.2,35.8,23.8,14.4,44,21,11,29.38,29.26,9,1,9,0.00
2013-5-17,72.1,64.3,53.6,20.4,16.5,11.3,20,16,14,29.74,29.38,14,2,14,0.00
2013-5-18,66.2,56.4,46.6,30.9,23.3,14.0,42,29,15,29.85,29.74,5,0,5,0.00
2013-5-19,58.5,56.9,54.9,48.8,42.0,30.4,74,58,37,29.85,29.74,7,0,7,0.67
2013-5-20,80.1,67.4,57.0,60.5,40.8,26.1,80,47,15,29.74,29.50,10,1,10,0.63
2013-5-21,88.5,74.3,60.1,60.8,38.7,28.1,74,34,13,29.53,29.38,10,1,10,0.00
2013-5-22,81.7,71.0,61.7,49.4,40.5,33.4,53,35,19,29.47,29.35,8,1,8,0.00
2013-5-23,77.2,69.4,64.2,59.1,48.8,37.8,70,49,26,29.44,29.29,17,0,17,2.40
2013-5-24,66.6,52.6,45.1,53.9,29.4,14.8,71,42,28,29.50,29.23,17,3,17,0.67
2013-5-25,54.1,48.4,44.2,23.3,16.0,8.8,43,28,18,29.56,29.44,18,5,18,0.24
2013-5-26,65.3,54.7,45.1,17.1,13.1,6.8,27,19,15,29.74,29.50,15,3,15,0.24
2013-5-27,74.3,59.4,40.6,21.2,16.6,7.3,39,20,13,29.80,29.65,13,1,13,0.00
2013-5-28,66.4,55.7,48.0,47.8,29.7,11.3,72,41,15,29.77,29.68,5,0,5,0.39
2013-5-29,83.3,66.2,56.8,61.8,44.8,27.3,81,54,14,29.68,29.53,13,0,13,0.31
2013-5-30,92.7,75.9,65.3,54.2,36.6,22.7,59,28,10,29.68,29.59,12,1,12,0.00
2013-5-31,94.1,78.2,65.3,50.9,35.0,22.7,52,24,10,29.68,29.53,10,1,10,0.00
2013-6-1,90.7,76.9,62.8,54.1,35.5,27.3,60,26,12,29.56,29.44,11,1,11,0.00
2013-6-2,88.2,76.6,68.4,54.2,39.0,27.0,57,30,13,29.47,29.32,14,2,14,0.35
2013-6-3,80.6,71.4,64.4,56.8,36.7,15.8,63,34,12,29.44,29.35,10,2,10,0.16
2013-6-4,73.2,63.2,54.1,21.2,16.0,11.3,18,16,14,29.68,29.44,17,3,17,0.00
2013-6-5,75.6,62.5,47.5,21.3,16.9,9.1,30,17,13,29.77,29.65,8,1,8,0.00
2013-6-6,70.5,63.4,53.1,42.2,29.9,17.1,52,32,14,29.68,29.56,9,1,9,0.24
2013-6-7,61.7,60.0,58.8,54.4,50.7,42.1,78,72,53,29.56,29.21,4,0,4,2.44
2013-6-8,77.0,66.2,56.5,51.3,34.1,23.6,75,35,15,29.62,29.18,10,2,10,0.87
2013-6-9,80.4,70.5,58.3,41.8,29.8,19.6,53,26,12,29.71,29.62,10,1,10,0.00
2013-6-10,68.4,63.8,61.3,53.7,44.5,36.6,75,51,33,29.71,29.38,7,0,7,1.06
2013-6-11,80.6,69.6,61.7,63.2,41.5,26.1,81,44,14,29.38,29.18,13,2,13,0.16
2013-6-12,74.5,68.0,58.1,33.5,23.2,17.5,39,19,13,29.41,29.26,16,3,16,0.00
2013-6-13,61.5,58.9,55.0,49.7,41.6,33.1,72,53,39,29.38,29.06,11,1,11,1.18
2013-6-14,74.7,60.6,52.7,41.6,28.6,17.2,62,32,13,29.44,29.12,15,2,15,0.55
2013-6-15,61.5,60.3,59.0,31.4,28.8,26.2,35,30,26,29.53,29.53,0,0,0,0.35
2013-6-16,80.2,67.5,54.5,37.0,27.8,19.6,46,26,12,29.53,29.32,13,1,13,0.35
2013-6-17,88.2,76.5,61.2,55.5,31.8,22.7,65,24,11,29.47,29.38,13,1,13,0.00
2013-6-18,84.9,68.3,60.4,50.9,38.5,23.2,63,37,11,29.44,29.35,7,0,7,0.87
2013-6-19,75.0,64.9,56.5,41.9,26.2,16.1,51,26,13,29.71,29.44,15,1,15,0.87
2013-6-20,68.2,57.1,51.3,37.2,31.1,26.9,52,38,22,29.80,29.71,6,0,6,0.00
2013-6-21,84.0,70.6,56.3,39.8,27.3,19.1,48,23,11,29.85,29.77,10,1,10,0.00
2013-6-22,84.9,72.0,57.2,38.2,28.3,20.6,43,22,11,29.80,29.68,12,1,12,0.00
2013-6-23,89.8,78.5,62.8,54.3,34.9,27.9,60,24,12,29.74,29.59,11,1,11,0.00
2013-6-24,94.5,83.4,70.7,53.7,32.6,25.7,52,18,11,29.62,29.50,12,2,12,0.00
2013-6-25,92.7,80.1,66.4,49.5,34.1,27.0,49,21,12,29.56,29.35,14,2,14,0.04
2013-6-26,85.1,77.7,70.2,47.8,33.8,27.0,42,21,13,29.41,29.35,11,2,11,0.04
2013-6-27,86.5,76.3,66.9,59.7,41.2,28.1,65,32,13,29.38,29.09,15,1,15,1.18
2013-6-28,85.5,76.8,70.7,57.2,38.7,27.3,60,29,13,29.09,29.03,9,1,9,0.08
2013-6-29,85.1,74.8,66.9,46.7,35.0,22.7,45,26,11,29.26,29.06,11,1,11,0.08
2013-6-30,86.5,72.8,64.8,54.2,44.2,34.1,60,38,16,29.47,29.26,7,0,7,0.04
2013-7-1,76.1,73.5,70.3,61.4,53.8,47.9,67,51,39,29.59,29.47,6,0,6,0.83
2013-7-2,73.0,72.8,72.3,60.8,57.0,53.9,66,58,51,29.65,29.59,6,0,6,0.00
2013-7-4,88.9,83.6,75.4,47.4,37.4,29.6,36,21,13,29.80,29.71,12,1,12,0.00
2013-7-5,91.4,80.9,70.2,60.1,40.2,28.2,63,28,12,29.77,29.65,12,1,12,0.00
2013-7-6,92.7,82.4,72.1,56.6,40.0,30.3,55,25,12,29.71,29.59,10,1,10,0.00
2013-7-7,94.5,86.4,71.8,50.0,36.5,30.3,44,19,11,29.62,29.50,10,1,10,0.12
2013-7-8,89.2,81.2,69.3,45.9,33.7,27.0,42,19,13,29.59,29.53,11,2,11,0.12
2013-7-9,91.4,78.2,67.6,49.8,35.5,25.9,50,24,12,29.62,29.53,9,1,9,0.12
2013-7-10,86.4,79.0,70.5,51.9,39.9,28.1,48,26,13,29.56,29.35,14,1,14,0.12
2013-7-11,84.2,76.4,68.2,56.3,35.9,27.0,56,25,14,29.50,29.38,9,1,9,0.16
2013-7-12,77.4,71.3,66.7,52.3,37.8,25.9,59,31,15,29.65,29.50,11,1,11,0.16
2013-7-13,67.8,66.8,65.8,60.7,56.8,51.8,78,71,59,29.80,29.65,6,0,6,0.08
2013-7-15,91.0,82.9,76.1,45.2,38.5,30.2,32,22,12,29.74,29.71,9,0,9,0.08
2013-7-16,92.1,81.1,70.5,48.0,37.5,27.5,44,24,12,29.77,29.71,13,1,13,0.08
2013-7-17,91.4,77.3,70.0,53.6,44.4,30.2,53,35,12,29.77,29.62,6,0,6,0.08
2013-7-18,95.9,84.3,73.2,50.5,39.9,30.3,43,24,11,29.62,29.50,11,1,11,0.00
2013-7-19,96.6,90.1,73.4,53.7,34.6,30.3,50,15,11,29.50,29.35,14,2,14,0.00
2013-7-20,92.1,83.9,74.8,43.3,34.6,28.8,32,18,12,29.41,29.29,13,2,13,0.00
2013-7-21,89.6,80.8,72.1,43.8,28.2,22.7,33,16,10,29.53,29.41,6,0,6,0.00
2013-7-22,87.6,73.1,67.8,63.3,45.7,28.1,69,40,13,29.53,29.38,14,0,14,0.51
2013-7-23,89.1,77.3,71.2,66.9,48.8,28.4,78,43,13,29.26,29.12,10,1,10,0.75
2013-7-24,78.4,72.8,64.9,56.4,27.1,16.2,64,20,13,29.50,29.21,15,3,15,0.75
2013-7-25,67.6,64.1,60.8,35.1,23.0,14.4,34,21,15,29.59,29.50,11,2,11,0.00
2013-7-26,81.1,71.3,64.0,37.5,29.2,21.7,36,23,12,29.59,29.56,9,1,10,0.00
2013-7-27,86.0,71.3,58.5,48.0,31.0,19.6,57,27,11,29.62,29.50,9,1,9,0.00
2013-7-28,75.9,69.4,64.4,58.0,45.3,33.2,69,44,22,29.53,29.47,10,0,10,0.59
2013-7-29,76.8,67.7,63.1,62.0,43.8,19.6,77,49,13,29.65,29.50,8,0,8,0.04
2013-7-30,79.5,68.7,57.4,40.3,28.0,19.8,49,24,12,29.74,29.65,11,1,11,0.04
2013-7-31,82.2,73.4,58.5,48.1,30.4,22.0,59,23,12,29.71,29.59,8,0,8,0.00
2013-8-1,70.3,66.2,63.3,58.9,49.3,39.2,74,56,34,29.59,29.38,10,0,10,0.51
2013-8-2,82.4,70.7,61.9,59.4,41.7,22.0,76,44,11,29.47,29.35,10,1,10,0.43
2013-8-3,77.5,71.1,63.5,47.9,36.3,25.1,50,30,15,29.47,29.38,11,1,11,0.08
2013-8-4,77.4,67.9,59.0,40.8,26.9,17.2,47,24,13,29.53,29.41,13,2,13,0.00
2013-8-5,76.1,65.1,55.0,32.4,23.1,15.8,38,22,13,29.62,29.53,13,1,13,0.00
2013-8-6,82.0,67.3,53.2,40.4,28.4,19.1,52,27,12,29.68,29.59,8,0,8,0.00
2013-8-7,77.9,69.8,63.0,46.0,37.1,29.3,47,31,18,29.68,29.62,8,0,8,0.24
2013-8-8,82.2,74.6,69.1,61.9,49.6,34.6,72,44,20,29.62,29.56,8,0,8,0.20
2013-8-9,86.2,75.1,70.9,66.6,55.7,34.2,78,56,16,29.56,29.35,13,1,13,0.28
2013-8-10,81.5,72.1,62.6,50.8,34.9,21.3,49,29,12,29.62,29.41,9,1,9,0.00
2013-8-11,79.0,68.3,56.1,41.5,28.2,18.5,43,24,12,29.68,29.59,7,0,8,0.00
2013-8-12,82.2,71.8,65.3,51.0,36.0,22.0,58,31,12,29.59,29.47,6,0,6,0.00
2013-8-13,77.7,69.7,64.6,61.0,46.0,33.4,70,46,21,29.50,29.26,13,0,13,0.71
2013-8-14,65.5,61.8,53.8,47.9,36.9,23.9,53,40,25,29.38,29.32,10,1,10,0.51
2013-8-15,75.7,63.5,50.9,33.9,24.3,17.9,46,25,13,29.71,29.62,9,1,9,0.00
2013-8-16,77.9,65.0,52.7,43.8,28.9,18.9,58,30,13,29.77,29.68,6,0,6,0.00
2013-8-17,81.3,66.8,55.2,52.0,34.0,21.2,66,35,12,29.83,29.77,8,0,8,0.00
2013-8-18,75.2,66.0,59.9,44.1,36.8,19.9,49,36,13,29.83,29.68,4,0,4,0.00
2013-8-19,79.7,68.9,60.4,52.6,36.4,22.0,69,36,12,29.68,29.59,8,0,8,0.00
2013-8-20,82.8,69.2,61.3,55.0,41.9,26.4,69,41,14,29.68,29.59,6,0,6,0.00
2013-8-21,88.7,77.3,61.7,57.2,34.1,22.7,67,26,10,29.74,29.62,9,1,9,0.00
2013-8-22,78.4,70.7,66.4,59.1,49.6,40.5,66,48,26,29.62,29.44,6,0,6,0.20
2013-8-23,81.0,71.6,60.6,44.9,30.5,19.6,45,24,12,29.68,29.44,10,1,10,0.00
2013-8-24,77.2,67.7,55.2,34.4,24.2,16.8,41,21,13,29.91,29.68,10,1,10,0.00
2013-8-25,82.4,68.9,54.0,35.8,27.0,18.5,50,24,11,29.94,29.77,10,1,10,0.00
2013-8-26,78.1,72.5,67.1,50.5,31.0,21.2,50,23,15,29.77,29.47,10,1,10,0.08
2013-8-27,85.8,75.1,69.4,52.9,38.4,27.0,55,30,13,29.47,29.38,13,2,13,0.00
2013-8-29,78.6,71.8,68.0,47.1,43.2,33.6,46,37,20,29.59,29.56,8,0,8,0.00
2013-8-30,85.5,75.4,68.0,51.3,38.7,27.5,47,29,13,29.59,29.41,9,1,9,0.00
2013-8-31,85.6,76.2,70.7,54.4,44.2,35.9,52,33,18,29.41,29.35,10,1,10,0.00
2013-9-1,82.4,75.9,71.4,62.5,52.2,38.1,69,46,21,29.41,29.35,7,0,7,0.67
2013-9-2,77.5,72.0,69.3,64.8,54.9,45.2,71,56,34,29.38,29.26,4,0,4,0.67
2013-9-3,79.0,69.6,61.2,60.2,42.1,20.9,72,44,12,29.44,29.29,12,1,12,0.16
2013-9-4,79.9,65.4,59.4,39.2,33.0,20.0,45,32,12,29.53,29.44,8,0,8,0.16
2013-9-5,74.5,63.1,54.0,44.7,28.6,14.4,55,31,13,29.71,29.47,15,1,15,0.00
2013-9-6,68.0,56.9,49.1,26.8,18.4,11.3,41,23,15,29.83,29.68,8,0,8,0.00
2013-9-7,78.4,68.1,48.4,39.1,23.8,17.4,59,21,13,29.68,29.44,8,1,9,0.00
2013-9-8,78.4,69.5,57.7,38.0,23.2,13.2,40,18,13,29.62,29.38,15,3,15,0.00
2013-9-9,68.5,56.3,46.8,35.1,22.6,11.5,45,28,15,29.80,29.62,6,0,6,0.00
2013-9-10,85.1,72.1,63.3,52.5,42.1,34.7,53,36,18,29.71,29.59,11,0,11,0.00
2013-9-11,94.6,81.7,69.4,56.4,41.8,31.0,58,28,11,29.68,29.53,10,1,10,0.00
2013-9-12,73.4,70.9,69.6,54.6,48.9,43.2,57,46,34,29.56,29.47,0,0,0,0.00
2013-9-18,63.1,54.3,48.9,26.0,22.7,14.4,40,30,16,29.74,29.74,4,0,4,0.00
2013-9-19,63.0,48.9,43.9,40.8,27.0,14.4,60,44,16,29.74,29.65,8,0,8,0.00
2013-9-20,80.1,70.7,48.4,35.6,25.0,18.9,53,21,12,29.65,29.53,7,1,7,0.00
2013-9-21,75.6,68.2,56.1,50.9,37.6,20.3,66,36,13,29.56,29.23,8,1,8,0.63
2013-9-22,65.7,60.9,53.2,30.4,17.7,10.9,36,19,15,29.47,29.29,15,4,15,0.63
2013-9-23,62.2,55.2,47.7,15.6,12.8,9.1,27,18,16,29.59,29.47,10,3,10,0.63
2013-9-24,71.1,56.5,40.5,22.7,18.0,14.4,47,25,14,29.62,29.44,11,1,11,0.63
2013-9-25,69.8,53.0,42.8,31.4,23.8,15.8,48,34,15,29.53,29.44,6,0,6,0.63
2013-9-26,69.8,60.8,52.9,47.6,31.0,18.4,67,35,15,29.68,29.56,7,0,7,0.00
2013-9-27,67.3,54.6,47.3,41.2,29.8,15.8,64,41,15,29.83,29.65,6,0,6,0.00
2013-9-28,73.8,61.6,51.8,35.8,26.5,15.9,47,30,13,29.88,29.80,8,0,8,0.00
2013-9-29,71.4,56.0,47.3,47.8,30.6,18.5,67,42,14,29.80,29.62,5,0,5,0.00
2013-9-30,72.1,60.8,46.6,35.8,26.4,17.5,62,31,14,29.65,29.53,5,0,5,0.00
2013-10-1,80.6,62.4,49.5,48.9,31.8,19.6,71,37,12,29.56,29.44,8,0,8,0.00
2013-10-2,83.7,67.2,54.0,53.0,33.7,22.0,70,34,11,29.59,29.47,11,1,11,0.00
2013-10-3,78.6,64.6,53.4,51.3,34.4,19.6,67,37,13,29.68,29.56,6,0,6,0.00
2013-10-4,86.9,73.5,60.1,53.7,39.1,22.7,69,34,11,29.62,29.50,8,1,8,0.00
2013-10-5,76.3,69.8,63.7,54.6,40.1,31.7,71,37,20,29.65,29.59,6,0,6,0.00
2013-10-6,66.6,65.5,64.6,58.2,54.1,42.3,76,67,42,29.65,29.59,5,0,5,0.04
2013-10-7,71.6,64.0,57.7,60.0,44.0,15.8,78,52,19,29.59,29.29,10,1,10,0.75
2013-10-8,60.6,48.9,47.1,30.0,26.8,15.3,49,43,17,29.80,29.50,8,0,8,0.75
2013-10-9,60.3,51.3,43.3,27.5,21.2,12.0,50,33,17,29.97,29.85,9,0,9,0.75
2013-10-10,60.3,55.5,48.9,29.2,23.1,18.4,45,29,24,29.85,29.65,10,1,10,0.00
2013-10-11,64.8,61.6,57.9,36.0,28.8,22.3,39,29,24,29.65,29.59,8,0,8,0.00
2013-10-12,73.2,62.5,55.2,32.5,22.0,12.1,37,22,14,29.85,29.65,8,1,8,0.00
2013-10-13,66.4,59.2,48.7,28.9,19.5,14.4,46,22,15,29.94,29.85,8,0,8,0.00
2013-10-14,69.1,57.1,48.0,38.2,25.1,14.4,60,33,15,29.91,29.80,5,0,5,0.00
2013-10-15,71.1,54.5,46.0,45.7,28.1,15.2,66,40,15,29.83,29.68,3,0,3,0.00
2013-10-16,65.1,56.2,48.7,40.8,34.2,27.5,59,44,24,29.68,29.47,2,0,2,0.00
2013-10-17,60.3,60.0,59.9,45.0,43.2,39.2,57,54,46,29.47,29.41,0,0,0,0.00
2013-10-19,61.7,56.9,53.1,30.8,20.8,13.4,42,25,16,29.41,29.32,0,0,0,0.00
2013-10-20,61.9,51.0,41.5,33.4,15.8,6.4,47,25,16,29.62,29.32,9,0,9,0.04
2013-10-21,67.5,50.6,37.0,28.1,15.9,9.5,51,28,15,29.71,29.53,8,0,8,0.00
2013-10-22,64.0,50.8,40.8,40.1,19.7,8.0,63,32,16,29.47,29.29,4,0,4,0.00
2013-10-23,55.4,45.7,35.2,19.0,11.4,5.3,44,26,17,29.38,29.18,8,0,8,0.00
2013-10-24,53.4,44.9,37.0,11.2,7.0,-0.7,32,21,16,29.56,29.29,6,0,6,0.04
2013-10-25,49.3,39.4,32.5,13.8,5.7,-1.4,40,25,19,29.68,29.56,13,0,13,0.00
2013-10-31,61.3,58.4,56.5,49.1,40.7,34.0,67,53,36,29.47,29.32,8,0,8,0.00
2013-11-1,69.6,62.1,49.3,43.7,30.0,14.5,47,32,15,29.35,29.09,11,1,11,0.20
2013-11-2,68.5,54.6,44.8,37.6,20.0,8.2,61,29,15,29.32,29.18,8,0,8,0.20
2013-11-3,49.3,42.3,33.3,22.9,7.2,-3.6,39,24,16,30.00,29.32,10,0,10,0.20
2013-11-4,46.0,36.5,29.3,3.7,-1.6,-6.8,23,19,17,30.18,30.00,11,0,11,0.20
2013-11-5,55.2,39.5,29.3,13.1,6.0,-3.1,40,25,18,30.21,30.09,4,0,4,0.20
2013-11-6,56.8,54.3,51.6,26.2,20.0,12.2,34,26,17,29.74,29.62,2,0,2,0.00
2013-11-7,61.0,51.9,39.0,36.4,20.6,2.4,43,30,19,29.62,29.29,11,0,11,0.04
2013-11-8,46.9,40.8,34.7,7.1,1.7,-2.6,30,19,17,29.77,29.53,13,0,13,0.04
2013-11-9,50.5,43.1,34.2,6.7,2.3,-2.6,31,18,16,29.83,29.53,6,0,6,0.04
2013-11-10,60.1,46.2,33.8,15.1,7.4,-0.7,40,21,17,29.59,29.35,13,0,13,0.04
2013-11-11,52.7,45.3,36.9,10.7,3.6,-1.5,19,17,16,29.74,29.50,10,0,10,0.04
2013-11-12,49.6,35.8,28.0,12.5,-0.5,-7.4,40,21,16,29.83,29.47,14,1,14,0.04
2013-11-13,32.4,27.8,25.5,-4.4,-7.3,-9.0,21,21,20,29.91,29.83,12,1,12,0.04
2013-11-14,51.6,41.7,31.5,10.7,1.5,-5.0,20,18,16,29.77,29.68,8,0,8,0.00
2013-11-15,59.2,41.4,27.5,14.4,2.5,-7.0,23,19,16,29.77,29.68,2,0,2,0.00
2013-11-16,62.6,49.8,34.7,21.7,14.1,-0.2,41,26,16,29.85,29.77,2,0,2,0.00
2013-11-17,58.5,53.7,47.7,51.8,44.4,33.2,79,71,57,29.74,29.35,0,0,0,0.00
2013-11-18,64.8,57.8,47.5,51.6,13.1,4.1,78,17,15,29.35,29.15,10,1,10,0.31
2013-11-19,47.5,41.6,33.3,4.8,1.3,-3.5,20,18,17,29.88,29.32,15,2,15,0.00
2013-11-20,42.4,32.6,25.3,1.9,-4.3,-9.1,21,20,18,30.12,29.88,12,0,12,0.00
2013-11-21,49.8,38.8,21.4,14.9,5.4,-3.2,34,25,17,30.15,29.94,3,0,3,0.00
2013-11-22,58.8,49.7,43.9,32.4,23.6,14.8,53,37,19,29.94,29.44,4,0,4,0.00
2013-11-23,52.9,38.3,26.6,19.7,0.7,-8.1,40,20,17,29.59,29.44,13,1,13,0.00
2013-11-24,26.6,23.7,21.4,-8.1,-9.9,-11.5,22,22,21,29.59,29.56,10,1,13,0.00
2013-11-27,55.6,40.5,31.5,48.8,16.1,-5.0,78,40,20,29.26,28.91,15,1,15,0.39
2013-11-28,33.6,29.7,25.7,-3.2,-6.1,-8.8,21,20,20,30.00,29.26,13,1,13,0.39
2013-11-29,35.4,27.7,27.0,-6.5,-7.2,-7.8,21,21,20,30.12,29.97,2,0,2,0.39
2013-11-30,32.7,31.4,29.7,-3.9,-5.0,-6.5,20,20,20,30.09,29.91,0,0,0,0.00
2013-12-1,48.2,36.6,26.8,13.9,4.3,-3.9,44,26,17,29.91,29.56,2,0,2,0.00
2013-12-2,47.5,36.8,29.7,12.5,8.5,2.7,43,31,19,29.56,29.41,0,0,0,0.00
2013-12-3,54.3,36.0,28.8,24.9,11.7,3.2,57,39,18,29.53,29.41,5,0,5,0.00
2013-12-4,51.8,41.0,31.5,25.2,14.7,6.5,55,37,18,29.68,29.53,2,0,2,0.00
2013-12-5,51.3,47.6,43.9,45.3,31.0,14.8,80,56,30,29.65,29.47,0,0,0,0.04
2013-12-6,51.6,44.2,36.3,46.0,26.7,15.7,81,52,33,29.68,29.41,8,0,8,0.83
2013-12-9,35.2,32.1,28.0,24.3,19.8,14.0,66,60,53,29.85,29.50,7,0,7,0.83
2013-12-10,33.3,30.4,23.5,24.9,12.1,-9.4,71,50,21,29.65,29.41,4,0,4,0.83
2013-12-11,33.8,26.7,18.7,-3.0,-7.3,-11.1,33,22,20,29.83,29.65,10,0,10,0.00
2013-12-12,26.4,21.0,17.4,-8.2,-11.7,-14.0,23,22,21,29.88,29.68,12,0,12,0.00
2013-12-13,20.1,19.9,19.8,-12.6,-12.8,-13.1,22,22,22,29.68,29.68,0,0,0,0.00
2013-12-14,24.6,19.2,16.9,8.9,0.9,-2.3,51,44,34,29.91,29.38,2,0,2,0.00
2013-12-15,37.6,30.0,24.8,18.6,10.4,0.5,62,45,22,29.38,29.09,8,0,8,0.00
2013-12-17,20.7,18.0,16.0,0.2,-2.7,-5.1,44,39,37,29.53,29.47,3,0,3,0.00
2013-12-18,36.9,26.5,17.1,1.5,-4.0,-9.4,43,27,19,29.68,29.47,9,0,9,0.00
2013-12-19,48.6,31.2,16.9,7.2,0.8,-7.9,43,28,16,29.71,29.53,5,0,5,0.04
2013-12-20,53.6,38.3,30.4,14.1,7.9,1.4,43,30,16,29.65,29.50,3,0,3,0.08
2013-12-21,57.7,44.5,34.3,42.6,16.7,8.3,64,35,17,29.53,29.44,3,0,3,0.04
2013-12-22,65.1,59.9,52.2,33.0,29.2,25.5,45,32,24,29.50,29.38,13,0,13,0.00
2013-12-23,56.8,50.0,38.3,47.9,31.1,1.6,72,51,21,29.68,29.47,12,0,12,0.71
2013-12-24,38.5,31.7,21.9,8.4,-3.3,-11.1,41,22,19,29.88,29.62,13,1,13,0.71
2013-12-25,27.0,21.1,14.9,-7.8,-11.5,-15.4,24,22,21,30.03,29.85,9,0,9,0.00
2013-12-26,24.8,22.5,20.3,-1.8,-6.4,-12.3,32,27,22,29.94,29.83,0,0,0,0.00
2013-12-28,52.0,40.4,31.3,9.8,3.3,-2.4,32,21,16,29.74,29.59,4,0,10,0.00
2013-12-29,41.2,36.3,30.2,32.2,14.6,1.6,70,41,21,29.59,29.00,12,0,12,1.10
2013-12-30,39.6,31.1,20.5,16.0,-1.2,-12.3,47,25,19,29.71,29.23,8,1,8,0.00
2013-12-31,29.1,23.9,16.7,1.5,-9.5,-14.6,31,22,20,29.80,29.59,10,0,10,0.00
2014-1-1,31.6,25.7,14.5,-4.8,-8.4,-15.7,29,22,20,29.91,29.77,5,0,5,0.00
2014-1-2,27.7,20.1,10.6,-0.5,-4.9,-9.4,44,33,21,29.77,29.23,8,0,8,0.00